sensor_id;sensor_type;location;lat;lon;timestamp;pressure;altitude;pressure_sealevel;temperature;humidity
76084;BME280;64789;0.000;0.000;2023-08-08T00:02:15;93534.72;;;16.14;76.59
76084;BME280;64789;0.000;0.000;2023-08-08T00:04:40;93529.94;;;16.07;76.57
76084;BME280;64789;0.000;0.000;2023-08-08T00:07:06;93534.72;;;16.14;76.66
76084;BME280;64789;0.000;0.000;2023-08-08T00:09:32;93531.19;;;15.85;77.24
76084;BME280;64789;0.000;0.000;2023-08-08T00:11:58;93535.38;;;15.74;77.66
76084;BME280;64789;0.000;0.000;2023-08-08T00:14:24;93531.66;;;15.62;78.19
76084;BME280;64789;0.000;0.000;2023-08-08T00:16:50;93520.66;;;15.75;77.38
76084;BME280;64789;0.000;0.000;2023-08-08T00:19:15;93520.50;;;15.93;77.07
76084;BME280;64789;0.000;0.000;2023-08-08T00:21:41;93516.78;;;16.00;77.22
76084;BME280;64789;0.000;0.000;2023-08-08T00:24:07;93531.31;;;16.06;77.28
76084;BME280;64789;0.000;0.000;2023-08-08T00:26:33;93529.94;;;16.07;77.17
76084;BME280;64789;0.000;0.000;2023-08-08T00:28:58;93541.69;;;16.03;76.68
76084;BME280;64789;0.000;0.000;2023-08-08T00:31:24;93542.75;;;15.89;76.59
76084;BME280;64789;0.000;0.000;2023-08-08T00:33:50;93551.38;;;15.52;77.29
76084;BME280;64789;0.000;0.000;2023-08-08T00:36:16;93550.75;;;15.44;77.46
76084;BME280;64789;0.000;0.000;2023-08-08T00:38:41;93557.69;;;15.34;77.28
76084;BME280;64789;0.000;0.000;2023-08-08T00:41:07;93544.09;;;15.30;76.38
76084;BME280;64789;0.000;0.000;2023-08-08T00:43:33;93543.13;;;14.99;77.99
76084;BME280;64789;0.000;0.000;2023-08-08T00:45:59;93545.09;;;15.06;77.13
76084;BME280;64789;0.000;0.000;2023-08-08T00:48:24;93560.88;;;14.92;77.62
76084;BME280;64789;0.000;0.000;2023-08-08T00:50:50;93559.25;;;14.89;77.37
76084;BME280;64789;0.000;0.000;2023-08-08T00:53:17;93566.78;;;14.77;76.43
76084;BME280;64789;0.000;0.000;2023-08-08T00:55:43;93557.88;;;14.71;77.59
76084;BME280;64789;0.000;0.000;2023-08-08T00:58:09;93555.66;;;14.69;77.46
76084;BME280;64789;0.000;0.000;2023-08-08T01:00:35;93551.56;;;14.53;77.59
76084;BME280;64789;0.000;0.000;2023-08-08T01:03:00;93555.41;;;14.48;76.81
76084;BME280;64789;0.000;0.000;2023-08-08T01:05:26;93558.50;;;14.42;77.99
76084;BME280;64789;0.000;0.000;2023-08-08T01:07:57;93555.47;;;14.67;76.45
76084;BME280;64789;0.000;0.000;2023-08-08T01:10:25;93551.00;;;14.55;77.02
76084;BME280;64789;0.000;0.000;2023-08-08T01:12:53;93553.78;;;14.45;76.93
76084;BME280;64789;0.000;0.000;2023-08-08T01:15:20;93560.25;;;14.38;77.28
76084;BME280;64789;0.000;0.000;2023-08-08T01:17:46;93561.03;;;14.21;77.57
76084;BME280;64789;0.000;0.000;2023-08-08T01:20:13;93558.75;;;14.10;78.12
76084;BME280;64789;0.000;0.000;2023-08-08T01:25:13;93554.47;;;14.36;77.50
76084;BME280;64789;0.000;0.000;2023-08-08T01:27:39;93562.19;;;14.18;77.37
76084;BME280;64789;0.000;0.000;2023-08-08T01:30:06;93574.06;;;14.53;76.33
76084;BME280;64789;0.000;0.000;2023-08-08T01:32:34;93576.38;;;14.37;76.31
76084;BME280;64789;0.000;0.000;2023-08-08T01:34:59;93581.59;;;14.24;76.43
76084;BME280;64789;0.000;0.000;2023-08-08T01:37:36;93583.63;;;14.40;76.47
76084;BME280;64789;0.000;0.000;2023-08-08T01:40:02;93582.78;;;14.48;76.32
76084;BME280;64789;0.000;0.000;2023-08-08T01:42:29;93573.50;;;14.28;76.49
76084;BME280;64789;0.000;0.000;2023-08-08T01:44:55;93575.41;;;14.25;77.00
76084;BME280;64789;0.000;0.000;2023-08-08T01:47:21;93585.81;;;14.32;76.93
76084;BME280;64789;0.000;0.000;2023-08-08T01:49:47;93586.22;;;14.29;77.24
76084;BME280;64789;0.000;0.000;2023-08-08T01:52:13;93594.75;;;14.21;76.95
76084;BME280;64789;0.000;0.000;2023-08-08T01:54:39;93601.09;;;14.22;77.43
76084;BME280;64789;0.000;0.000;2023-08-08T01:57:07;93593.31;;;14.03;78.13
76084;BME280;64789;0.000;0.000;2023-08-08T01:59:33;93609.53;;;14.22;77.03
76084;BME280;64789;0.000;0.000;2023-08-08T02:01:58;93608.22;;;14.23;76.88
76084;BME280;64789;0.000;0.000;2023-08-08T02:04:24;93611.59;;;14.21;77.06
76084;BME280;64789;0.000;0.000;2023-08-08T02:06:50;93598.94;;;14.30;76.94
76084;BME280;64789;0.000;0.000;2023-08-08T02:09:16;93606.22;;;14.33;76.48
76084;BME280;64789;0.000;0.000;2023-08-08T02:11:41;93607.72;;;14.34;76.53
76084;BME280;64789;0.000;0.000;2023-08-08T02:14:07;93611.53;;;14.12;77.39
76084;BME280;64789;0.000;0.000;2023-08-08T02:16:33;93612.19;;;14.20;76.31
76084;BME280;64789;0.000;0.000;2023-08-08T02:19:00;93617.72;;;14.27;76.54
76084;BME280;64789;0.000;0.000;2023-08-08T02:21:26;93606.13;;;14.23;76.37
76084;BME280;64789;0.000;0.000;2023-08-08T02:23:51;93607.72;;;14.17;75.71
76084;BME280;64789;0.000;0.000;2023-08-08T02:26:17;93619.88;;;14.19;76.35
76084;BME280;64789;0.000;0.000;2023-08-08T02:28:43;93636.91;;;14.04;77.01
76084;BME280;64789;0.000;0.000;2023-08-08T02:31:09;93655.69;;;14.02;76.50
76084;BME280;64789;0.000;0.000;2023-08-08T02:33:34;93648.31;;;14.06;77.25
76084;BME280;64789;0.000;0.000;2023-08-08T02:36:00;93640.69;;;14.16;76.14
76084;BME280;64789;0.000;0.000;2023-08-08T02:38:25;93635.69;;;13.98;76.26
76084;BME280;64789;0.000;0.000;2023-08-08T02:40:51;93639.59;;;13.85;77.37
76084;BME280;64789;0.000;0.000;2023-08-08T02:43:17;93650.97;;;13.87;77.23
76084;BME280;64789;0.000;0.000;2023-08-08T02:45:43;93649.06;;;13.90;76.85
76084;BME280;64789;0.000;0.000;2023-08-08T02:48:08;93651.22;;;13.81;77.04
76084;BME280;64789;0.000;0.000;2023-08-08T02:50:34;93660.41;;;13.65;78.15
76084;BME280;64789;0.000;0.000;2023-08-08T02:53:01;93670.88;;;13.81;77.57
76084;BME280;64789;0.000;0.000;2023-08-08T02:55:32;93671.78;;;13.67;78.29
76084;BME280;64789;0.000;0.000;2023-08-08T02:57:58;93662.88;;;13.78;77.44
76084;BME280;64789;0.000;0.000;2023-08-08T03:00:23;93657.94;;;13.69;77.88
76084;BME280;64789;0.000;0.000;2023-08-08T03:02:52;93665.19;;;13.89;77.20
76084;BME280;64789;0.000;0.000;2023-08-08T03:05:17;93663.03;;;13.80;77.01
76084;BME280;64789;0.000;0.000;2023-08-08T03:07:43;93669.56;;;13.82;77.07
76084;BME280;64789;0.000;0.000;2023-08-08T03:10:09;93670.09;;;13.71;78.11
76084;BME280;64789;0.000;0.000;2023-08-08T03:12:36;93670.16;;;13.81;77.48
76084;BME280;64789;0.000;0.000;2023-08-08T03:15:04;93675.50;;;13.52;78.39
76084;BME280;64789;0.000;0.000;2023-08-08T03:17:30;93676.41;;;13.55;78.69
76084;BME280;64789;0.000;0.000;2023-08-08T03:19:56;93674.19;;;13.70;78.25
76084;BME280;64789;0.000;0.000;2023-08-08T03:22:22;93664.88;;;13.68;78.02
76084;BME280;64789;0.000;0.000;2023-08-08T03:24:47;93658.34;;;13.65;78.56
76084;BME280;64789;0.000;0.000;2023-08-08T03:27:13;93661.72;;;13.64;78.40
76084;BME280;64789;0.000;0.000;2023-08-08T03:29:39;93670.88;;;13.47;78.89
76084;BME280;64789;0.000;0.000;2023-08-08T03:32:05;93672.59;;;13.43;79.47
76084;BME280;64789;0.000;0.000;2023-08-08T03:34:31;93675.81;;;13.39;79.48
76084;BME280;64789;0.000;0.000;2023-08-08T03:36:56;93678.03;;;13.41;79.43
76084;BME280;64789;0.000;0.000;2023-08-08T03:39:22;93686.16;;;13.54;79.29
76084;BME280;64789;0.000;0.000;2023-08-08T03:41:47;93686.97;;;13.47;79.49
76084;BME280;64789;0.000;0.000;2023-08-08T03:44:13;93690.41;;;13.38;78.76
76084;BME280;64789;0.000;0.000;2023-08-08T03:46:40;93683.75;;;13.50;78.76
76084;BME280;64789;0.000;0.000;2023-08-08T03:49:05;93700.34;;;13.39;79.31
76084;BME280;64789;0.000;0.000;2023-08-08T03:51:31;93708.91;;;13.41;79.31
76084;BME280;64789;0.000;0.000;2023-08-08T03:53:57;93712.38;;;13.32;80.07
76084;BME280;64789;0.000;0.000;2023-08-08T03:56:22;93708.00;;;13.38;79.06
76084;BME280;64789;0.000;0.000;2023-08-08T03:58:48;93702.66;;;13.50;78.60
76084;BME280;64789;0.000;0.000;2023-08-08T04:01:14;93706.03;;;13.48;78.81
76084;BME280;64789;0.000;0.000;2023-08-08T04:03:39;93693.25;;;13.55;78.47
76084;BME280;64789;0.000;0.000;2023-08-08T04:06:05;93678.38;;;13.28;78.72
76084;BME280;64789;0.000;0.000;2023-08-08T04:08:31;93685.47;;;13.46;78.69
76084;BME280;64789;0.000;0.000;2023-08-08T04:10:57;93686.81;;;13.45;78.65
76084;BME280;64789;0.000;0.000;2023-08-08T04:13:23;93694.13;;;13.40;78.75
76084;BME280;64789;0.000;0.000;2023-08-08T04:15:48;93703.06;;;13.46;78.33
76084;BME280;64789;0.000;0.000;2023-08-08T04:18:17;93703.53;;;13.35;79.52
76084;BME280;64789;0.000;0.000;2023-08-08T04:20:45;93709.44;;;13.47;79.01
76084;BME280;64789;0.000;0.000;2023-08-08T04:23:11;93717.28;;;13.48;77.94
76084;BME280;64789;0.000;0.000;2023-08-08T04:25:36;93723.88;;;13.60;77.21
76084;BME280;64789;0.000;0.000;2023-08-08T04:28:02;93729.34;;;13.58;78.09
76084;BME280;64789;0.000;0.000;2023-08-08T04:30:28;93739.72;;;13.48;78.82
76084;BME280;64789;0.000;0.000;2023-08-08T04:32:54;93741.63;;;13.46;78.65
76084;BME280;64789;0.000;0.000;2023-08-08T04:35:19;93746.66;;;13.47;78.96
76084;BME280;64789;0.000;0.000;2023-08-08T04:37:45;93734.22;;;13.58;78.95
76084;BME280;64789;0.000;0.000;2023-08-08T04:40:11;93737.03;;;13.75;78.04
76084;BME280;64789;0.000;0.000;2023-08-08T04:42:37;93744.88;;;13.59;78.47
76084;BME280;64789;0.000;0.000;2023-08-08T04:45:02;93746.69;;;13.64;78.25
76084;BME280;64789;0.000;0.000;2023-08-08T04:47:30;93749.00;;;13.58;79.18
76084;BME280;64789;0.000;0.000;2023-08-08T04:49:56;93749.59;;;13.74;78.74
76084;BME280;64789;0.000;0.000;2023-08-08T04:52:22;93750.69;;;13.78;78.66
76084;BME280;64789;0.000;0.000;2023-08-08T04:54:47;93750.91;;;13.73;78.82
76084;BME280;64789;0.000;0.000;2023-08-08T04:57:13;93753.88;;;13.75;79.25
76084;BME280;64789;0.000;0.000;2023-08-08T04:59:39;93753.50;;;13.96;78.32
76084;BME280;64789;0.000;0.000;2023-08-08T05:02:04;93755.41;;;13.93;78.78
76084;BME280;64789;0.000;0.000;2023-08-08T05:04:30;93756.56;;;14.07;79.63
76084;BME280;64789;0.000;0.000;2023-08-08T05:06:56;93741.09;;;14.16;78.56
76084;BME280;64789;0.000;0.000;2023-08-08T05:09:23;93746.81;;;14.25;77.89
76084;BME280;64789;0.000;0.000;2023-08-08T05:11:54;93731.59;;;14.28;76.66
76084;BME280;64789;0.000;0.000;2023-08-08T05:14:19;93749.66;;;14.42;77.40
76084;BME280;64789;0.000;0.000;2023-08-08T05:16:45;93762.88;;;14.50;77.53
76084;BME280;64789;0.000;0.000;2023-08-08T05:19:11;93762.19;;;14.59;76.81
76084;BME280;64789;0.000;0.000;2023-08-08T05:21:37;93773.75;;;14.45;76.39
76084;BME280;64789;0.000;0.000;2023-08-08T05:24:03;93777.91;;;14.62;76.56
76084;BME280;64789;0.000;0.000;2023-08-08T05:26:29;93784.50;;;14.74;76.06
76084;BME280;64789;0.000;0.000;2023-08-08T05:28:55;93795.66;;;14.81;75.41
76084;BME280;64789;0.000;0.000;2023-08-08T05:31:20;93797.38;;;14.94;74.96
76084;BME280;64789;0.000;0.000;2023-08-08T05:33:47;93803.94;;;15.06;75.88
76084;BME280;64789;0.000;0.000;2023-08-08T05:36:13;93811.44;;;15.21;76.04
76084;BME280;64789;0.000;0.000;2023-08-08T05:38:39;93800.44;;;15.15;75.75
76084;BME280;64789;0.000;0.000;2023-08-08T05:41:04;93808.88;;;15.15;74.10
76084;BME280;64789;0.000;0.000;2023-08-08T05:43:30;93797.06;;;15.26;73.53
76084;BME280;64789;0.000;0.000;2023-08-08T05:45:56;93806.81;;;15.42;72.42
76084;BME280;64789;0.000;0.000;2023-08-08T05:48:21;93802.56;;;15.51;73.24
76084;BME280;64789;0.000;0.000;2023-08-08T05:50:47;93811.31;;;15.45;71.99
76084;BME280;64789;0.000;0.000;2023-08-08T05:53:13;93809.78;;;15.44;72.39
76084;BME280;64789;0.000;0.000;2023-08-08T05:55:40;93809.47;;;15.40;71.72
76084;BME280;64789;0.000;0.000;2023-08-08T05:58:06;93813.59;;;15.39;72.19
76084;BME280;64789;0.000;0.000;2023-08-08T06:00:31;93818.19;;;15.35;72.08
76084;BME280;64789;0.000;0.000;2023-08-08T06:02:57;93825.53;;;15.47;72.35
76084;BME280;64789;0.000;0.000;2023-08-08T06:05:23;93829.44;;;15.61;71.41
76084;BME280;64789;0.000;0.000;2023-08-08T06:07:49;93825.91;;;15.70;71.45
76084;BME280;64789;0.000;0.000;2023-08-08T06:10:15;93831.31;;;15.86;70.60
76084;BME280;64789;0.000;0.000;2023-08-08T06:12:41;93834.91;;;15.96;70.12
76084;BME280;64789;0.000;0.000;2023-08-08T06:15:07;93837.13;;;15.97;70.19
76084;BME280;64789;0.000;0.000;2023-08-08T06:17:34;93839.38;;;15.99;69.41
76084;BME280;64789;0.000;0.000;2023-08-08T06:19:59;93839.84;;;16.14;69.77
76084;BME280;64789;0.000;0.000;2023-08-08T06:22:25;93843.00;;;16.28;67.55
76084;BME280;64789;0.000;0.000;2023-08-08T06:24:50;93846.69;;;16.21;66.09
76084;BME280;64789;0.000;0.000;2023-08-08T06:27:17;93841.47;;;16.08;66.45
76084;BME280;64789;0.000;0.000;2023-08-08T06:29:43;93840.59;;;16.24;67.22
76084;BME280;64789;0.000;0.000;2023-08-08T06:32:08;93847.16;;;16.46;67.55
76084;BME280;64789;0.000;0.000;2023-08-08T06:34:34;93839.75;;;16.51;67.77
76084;BME280;64789;0.000;0.000;2023-08-08T06:36:59;93845.97;;;16.30;65.26
76084;BME280;64789;0.000;0.000;2023-08-08T06:39:25;93841.22;;;16.23;65.33
76084;BME280;64789;0.000;0.000;2023-08-08T06:41:51;93851.06;;;15.95;64.90
76084;BME280;64789;0.000;0.000;2023-08-08T06:44:28;93851.03;;;15.86;65.18
76084;BME280;64789;0.000;0.000;2023-08-08T06:46:54;93846.69;;;16.11;66.27
76084;BME280;64789;0.000;0.000;2023-08-08T06:49:19;93848.81;;;16.39;66.72
76084;BME280;64789;0.000;0.000;2023-08-08T06:51:45;93849.84;;;16.44;65.27
76084;BME280;64789;0.000;0.000;2023-08-08T06:54:10;93841.28;;;16.61;65.72
76084;BME280;64789;0.000;0.000;2023-08-08T06:56:36;93852.97;;;16.48;62.73
76084;BME280;64789;0.000;0.000;2023-08-08T06:59:01;93848.09;;;16.58;61.92
76084;BME280;64789;0.000;0.000;2023-08-08T07:01:27;93857.50;;;16.80;62.82
76084;BME280;64789;0.000;0.000;2023-08-08T07:03:53;93853.19;;;16.79;61.26
76084;BME280;64789;0.000;0.000;2023-08-08T07:06:18;93867.56;;;16.73;62.11
76084;BME280;64789;0.000;0.000;2023-08-08T07:08:44;93858.50;;;16.56;61.81
76084;BME280;64789;0.000;0.000;2023-08-08T07:11:10;93867.28;;;16.60;61.29
76084;BME280;64789;0.000;0.000;2023-08-08T07:13:36;93862.66;;;16.64;60.35
76084;BME280;64789;0.000;0.000;2023-08-08T07:16:02;93853.03;;;16.96;61.64
76084;BME280;64789;0.000;0.000;2023-08-08T07:18:27;93858.22;;;17.09;60.62
76084;BME280;64789;0.000;0.000;2023-08-08T07:20:53;93851.53;;;17.24;60.72
76084;BME280;64789;0.000;0.000;2023-08-08T07:23:19;93849.28;;;17.22;60.96
76084;BME280;64789;0.000;0.000;2023-08-08T07:25:45;93855.22;;;17.17;60.84
76084;BME280;64789;0.000;0.000;2023-08-08T07:28:10;93855.84;;;17.05;60.16
76084;BME280;64789;0.000;0.000;2023-08-08T07:30:36;93867.16;;;16.86;58.60
76084;BME280;64789;0.000;0.000;2023-08-08T07:33:02;93871.75;;;16.82;58.90
76084;BME280;64789;0.000;0.000;2023-08-08T07:35:28;93871.28;;;16.85;57.98
76084;BME280;64789;0.000;0.000;2023-08-08T07:37:53;93862.66;;;16.64;58.85
76084;BME280;64789;0.000;0.000;2023-08-08T07:40:20;93866.41;;;16.86;59.41
76084;BME280;64789;0.000;0.000;2023-08-08T07:42:46;93865.03;;;17.25;58.91
76084;BME280;64789;0.000;0.000;2023-08-08T07:45:12;93874.84;;;17.53;59.12
76084;BME280;64789;0.000;0.000;2023-08-08T07:47:38;93865.53;;;17.81;57.19
76084;BME280;64789;0.000;0.000;2023-08-08T07:50:04;93863.97;;;17.99;55.87
76084;BME280;64789;0.000;0.000;2023-08-08T07:52:29;93863.03;;;18.06;54.34
76084;BME280;64789;0.000;0.000;2023-08-08T07:54:55;93861.97;;;18.11;55.33
76084;BME280;64789;0.000;0.000;2023-08-08T07:57:21;93869.25;;;18.14;54.73
76084;BME280;64789;0.000;0.000;2023-08-08T07:59:47;93861.25;;;17.51;54.25
76084;BME280;64789;0.000;0.000;2023-08-08T08:02:12;93865.56;;;17.71;55.45
76084;BME280;64789;0.000;0.000;2023-08-08T08:04:38;93871.00;;;17.89;55.33
76084;BME280;64789;0.000;0.000;2023-08-08T08:07:04;93873.50;;;17.94;54.40
76084;BME280;64789;0.000;0.000;2023-08-08T08:09:30;93870.38;;;17.90;52.86
76084;BME280;64789;0.000;0.000;2023-08-08T08:11:56;93868.41;;;18.02;54.92
76084;BME280;64789;0.000;0.000;2023-08-08T08:14:22;93858.59;;;18.03;54.08
76084;BME280;64789;0.000;0.000;2023-08-08T08:16:48;93863.31;;;18.10;52.37
76084;BME280;64789;0.000;0.000;2023-08-08T08:19:13;93864.72;;;18.30;54.21
76084;BME280;64789;0.000;0.000;2023-08-08T08:21:39;93855.81;;;18.24;51.44
76084;BME280;64789;0.000;0.000;2023-08-08T08:24:05;93868.22;;;18.41;51.83
76084;BME280;64789;0.000;0.000;2023-08-08T08:26:31;93864.25;;;18.65;52.26
76084;BME280;64789;0.000;0.000;2023-08-08T08:28:57;93865.84;;;18.89;51.96
76084;BME280;64789;0.000;0.000;2023-08-08T08:31:23;93861.44;;;18.97;51.54
76084;BME280;64789;0.000;0.000;2023-08-08T08:33:49;93860.59;;;18.74;51.22
76084;BME280;64789;0.000;0.000;2023-08-08T08:36:14;93855.75;;;18.65;52.12
76084;BME280;64789;0.000;0.000;2023-08-08T08:38:40;93863.50;;;18.64;51.73
76084;BME280;64789;0.000;0.000;2023-08-08T08:41:06;93860.88;;;18.78;51.23
76084;BME280;64789;0.000;0.000;2023-08-08T08:43:34;93863.69;;;18.99;50.00
76084;BME280;64789;0.000;0.000;2023-08-08T08:46:01;93866.00;;;19.24;50.21
76084;BME280;64789;0.000;0.000;2023-08-08T08:48:28;93867.94;;;19.10;49.98
76084;BME280;64789;0.000;0.000;2023-08-08T08:50:54;93867.56;;;19.15;50.53
76084;BME280;64789;0.000;0.000;2023-08-08T08:53:19;93867.97;;;19.21;49.29
76084;BME280;64789;0.000;0.000;2023-08-08T08:55:47;93868.09;;;19.23;49.56
76084;BME280;64789;0.000;0.000;2023-08-08T08:58:14;93861.09;;;19.24;49.09
76084;BME280;64789;0.000;0.000;2023-08-08T09:00:43;93857.06;;;19.06;50.49
76084;BME280;64789;0.000;0.000;2023-08-08T09:03:09;93864.34;;;18.88;50.35
76084;BME280;64789;0.000;0.000;2023-08-08T09:05:34;93868.94;;;19.14;50.70
76084;BME280;64789;0.000;0.000;2023-08-08T09:08:01;93861.31;;;19.49;49.55
76084;BME280;64789;0.000;0.000;2023-08-08T09:10:52;93857.19;;;19.74;49.11
76084;BME280;64789;0.000;0.000;2023-08-08T09:13:43;93861.63;;;19.88;47.01
76084;BME280;64789;0.000;0.000;2023-08-08T09:16:34;93868.06;;;19.44;48.55
76084;BME280;64789;0.000;0.000;2023-08-08T09:19:25;93866.78;;;19.68;48.79
76084;BME280;64789;0.000;0.000;2023-08-08T09:22:16;93870.38;;;19.69;47.96
76084;BME280;64789;0.000;0.000;2023-08-08T09:25:08;93870.03;;;19.98;48.00
76084;BME280;64789;0.000;0.000;2023-08-08T09:27:59;93864.00;;;20.15;48.32
76084;BME280;64789;0.000;0.000;2023-08-08T09:30:50;93853.19;;;20.23;47.33
76084;BME280;64789;0.000;0.000;2023-08-08T09:33:17;93855.13;;;20.20;45.29
76084;BME280;64789;0.000;0.000;2023-08-08T09:35:42;93864.28;;;20.42;46.83
76084;BME280;64789;0.000;0.000;2023-08-08T09:38:08;93863.91;;;20.59;46.24
76084;BME280;64789;0.000;0.000;2023-08-08T09:40:35;93865.94;;;20.93;46.44
76084;BME280;64789;0.000;0.000;2023-08-08T09:43:00;93862.78;;;20.76;45.30
76084;BME280;64789;0.000;0.000;2023-08-08T09:45:26;93871.94;;;20.63;45.91
76084;BME280;64789;0.000;0.000;2023-08-08T09:47:52;93866.56;;;20.92;46.26
76084;BME280;64789;0.000;0.000;2023-08-08T09:50:17;93870.44;;;20.73;45.08
76084;BME280;64789;0.000;0.000;2023-08-08T09:52:43;93871.38;;;21.13;46.18
76084;BME280;64789;0.000;0.000;2023-08-08T09:55:11;93870.63;;;21.12;45.98
76084;BME280;64789;0.000;0.000;2023-08-08T09:57:38;93869.44;;;20.80;45.19
76084;BME280;64789;0.000;0.000;2023-08-08T10:00:04;93876.91;;;20.99;45.23
76084;BME280;64789;0.000;0.000;2023-08-08T10:02:35;93868.72;;;20.68;44.62
76084;BME280;64789;0.000;0.000;2023-08-08T10:05:01;93863.66;;;20.67;45.26
76084;BME280;64789;0.000;0.000;2023-08-08T10:07:27;93875.88;;;20.23;44.44
76084;BME280;64789;0.000;0.000;2023-08-08T10:09:53;93869.94;;;20.19;46.32
76084;BME280;64789;0.000;0.000;2023-08-08T10:12:18;93861.31;;;20.63;46.35
76084;BME280;64789;0.000;0.000;2023-08-08T10:14:44;93862.47;;;21.07;45.26
76084;BME280;64789;0.000;0.000;2023-08-08T10:17:12;93863.75;;;20.80;43.32
76084;BME280;64789;0.000;0.000;2023-08-08T10:19:38;93861.28;;;20.75;45.77
76084;BME280;64789;0.000;0.000;2023-08-08T10:22:04;93853.06;;;20.44;43.97
76084;BME280;64789;0.000;0.000;2023-08-08T10:24:34;93864.50;;;20.69;44.07
76084;BME280;64789;0.000;0.000;2023-08-08T10:27:00;93857.34;;;20.80;43.12
76084;BME280;64789;0.000;0.000;2023-08-08T10:29:27;93847.72;;;20.62;43.92
76084;BME280;64789;0.000;0.000;2023-08-08T10:31:58;93861.25;;;20.86;44.98
76084;BME280;64789;0.000;0.000;2023-08-08T10:34:27;93855.81;;;21.02;44.79
76084;BME280;64789;0.000;0.000;2023-08-08T10:37:03;93856.78;;;21.43;45.08
76084;BME280;64789;0.000;0.000;2023-08-08T10:39:31;93852.28;;;21.27;42.31
76084;BME280;64789;0.000;0.000;2023-08-08T10:42:00;93853.59;;;21.63;43.45
76084;BME280;64789;0.000;0.000;2023-08-08T10:44:26;93845.22;;;21.53;42.77
76084;BME280;64789;0.000;0.000;2023-08-08T10:46:52;93849.59;;;21.68;41.95
76084;BME280;64789;0.000;0.000;2023-08-08T10:49:18;93838.84;;;21.91;42.63
76084;BME280;64789;0.000;0.000;2023-08-08T10:51:45;93844.44;;;21.89;42.43
76084;BME280;64789;0.000;0.000;2023-08-08T10:54:13;93840.78;;;22.00;42.35
76084;BME280;64789;0.000;0.000;2023-08-08T10:56:39;93839.81;;;21.96;42.13
76084;BME280;64789;0.000;0.000;2023-08-08T10:59:13;93839.19;;;21.72;40.17
76084;BME280;64789;0.000;0.000;2023-08-08T11:01:40;93833.16;;;21.91;42.37
76084;BME280;64789;0.000;0.000;2023-08-08T11:04:06;93827.94;;;21.24;40.84
76084;BME280;64789;0.000;0.000;2023-08-08T11:06:32;93827.97;;;21.49;42.90
76084;BME280;64789;0.000;0.000;2023-08-08T11:08:58;93842.50;;;21.80;42.74
76084;BME280;64789;0.000;0.000;2023-08-08T11:11:25;93833.69;;;21.88;41.28
76084;BME280;64789;0.000;0.000;2023-08-08T11:13:51;93838.50;;;22.10;42.64
76084;BME280;64789;0.000;0.000;2023-08-08T11:16:18;93835.84;;;22.28;42.15
76084;BME280;64789;0.000;0.000;2023-08-08T11:18:45;93838.09;;;22.30;41.85
76084;BME280;64789;0.000;0.000;2023-08-08T11:21:10;93829.44;;;22.28;41.67
76084;BME280;64789;0.000;0.000;2023-08-08T11:23:39;93834.63;;;22.45;41.96
76084;BME280;64789;0.000;0.000;2023-08-08T11:26:10;93826.19;;;22.47;42.46
76084;BME280;64789;0.000;0.000;2023-08-08T11:28:35;93829.13;;;22.62;41.15
76084;BME280;64789;0.000;0.000;2023-08-08T11:31:01;93841.28;;;22.76;41.49
76084;BME280;64789;0.000;0.000;2023-08-08T11:33:52;93837.47;;;22.72;41.21
76084;BME280;64789;0.000;0.000;2023-08-08T11:36:44;93834.91;;;22.51;41.21
76084;BME280;64789;0.000;0.000;2023-08-08T11:39:36;93830.59;;;22.36;40.90
76084;BME280;64789;0.000;0.000;2023-08-08T11:42:02;93828.28;;;22.46;42.45
76084;BME280;64789;0.000;0.000;2023-08-08T11:44:28;93836.31;;;22.63;42.08
76084;BME280;64789;0.000;0.000;2023-08-08T11:46:54;93822.94;;;22.66;41.73
76084;BME280;64789;0.000;0.000;2023-08-08T11:49:19;93829.13;;;22.89;41.12
76084;BME280;64789;0.000;0.000;2023-08-08T11:51:45;93815.19;;;22.96;40.40
76084;BME280;64789;0.000;0.000;2023-08-08T11:54:11;93824.91;;;22.91;40.55
76084;BME280;64789;0.000;0.000;2023-08-08T11:56:36;93814.00;;;23.01;41.13
76084;BME280;64789;0.000;0.000;2023-08-08T11:59:02;93819.47;;;23.10;41.24
76084;BME280;64789;0.000;0.000;2023-08-08T12:01:30;93822.91;;;22.93;40.00
76084;BME280;64789;0.000;0.000;2023-08-08T12:03:56;93821.41;;;22.92;40.21
76084;BME280;64789;0.000;0.000;2023-08-08T12:06:22;93827.69;;;22.61;38.99
76084;BME280;64789;0.000;0.000;2023-08-08T12:08:47;93809.38;;;22.25;40.20
76084;BME280;64789;0.000;0.000;2023-08-08T12:11:13;93803.69;;;22.53;41.76
76084;BME280;64789;0.000;0.000;2023-08-08T12:13:43;93808.44;;;22.48;40.92
76084;BME280;64789;0.000;0.000;2023-08-08T12:16:09;93810.38;;;22.30;39.87
76084;BME280;64789;0.000;0.000;2023-08-08T12:18:35;93813.22;;;22.30;39.86
76084;BME280;64789;0.000;0.000;2023-08-08T12:21:03;93811.50;;;22.39;41.34
76084;BME280;64789;0.000;0.000;2023-08-08T12:23:29;93812.75;;;22.36;41.83
76084;BME280;64789;0.000;0.000;2023-08-08T12:25:54;93800.88;;;22.39;41.29
76084;BME280;64789;0.000;0.000;2023-08-08T12:28:20;93800.03;;;22.64;42.35
76084;BME280;64789;0.000;0.000;2023-08-08T12:30:46;93799.25;;;22.77;41.06
76084;BME280;64789;0.000;0.000;2023-08-08T12:33:11;93798.75;;;22.80;40.37
76084;BME280;64789;0.000;0.000;2023-08-08T12:35:43;93800.19;;;22.81;38.92
76084;BME280;64789;0.000;0.000;2023-08-08T12:38:09;93804.66;;;22.71;40.14
76084;BME280;64789;0.000;0.000;2023-08-08T12:40:40;93796.28;;;23.02;40.33
76084;BME280;64789;0.000;0.000;2023-08-08T12:43:06;93795.94;;;23.10;40.54
76084;BME280;64789;0.000;0.000;2023-08-08T12:45:57;93795.69;;;23.19;40.39
76084;BME280;64789;0.000;0.000;2023-08-08T12:48:23;93792.44;;;23.11;39.36
76084;BME280;64789;0.000;0.000;2023-08-08T12:50:48;93793.50;;;23.18;40.14
76084;BME280;64789;0.000;0.000;2023-08-08T12:53:14;93797.78;;;23.19;37.78
76084;BME280;64789;0.000;0.000;2023-08-08T12:55:41;93795.09;;;23.07;37.25
76084;BME280;64789;0.000;0.000;2023-08-08T12:58:07;93793.13;;;22.96;38.04
76084;BME280;64789;0.000;0.000;2023-08-08T13:00:32;93784.97;;;22.61;37.82
76084;BME280;64789;0.000;0.000;2023-08-08T13:02:58;93783.84;;;22.82;38.08
76084;BME280;64789;0.000;0.000;2023-08-08T13:05:24;93780.16;;;23.22;40.24
76084;BME280;64789;0.000;0.000;2023-08-08T13:07:50;93778.22;;;23.40;39.52
76084;BME280;64789;0.000;0.000;2023-08-08T13:10:15;93778.91;;;23.55;39.12
76084;BME280;64789;0.000;0.000;2023-08-08T13:12:41;93772.38;;;23.52;39.27